Time;durP1;ratioP1;P1;durP2;ratioP2;P2;SDS_P1;SDS_P2;PMS_P1;PMS_P2;Temp;Humidity;BMP_temperature;BMP_pressure;BME280_temperature;BME280_humidity;BME280_pressure;Samples;Min_cycle;Max_cycle;Signal;HPM_P1;HPM_P2
2022/10/18 00:01:13;;;;;;;16.93;15.33;;;16.10;1.00;;;;;;6376016;27;20732;-54
2022/10/18 00:04:16;;;;;;;18.10;16.20;;;16.10;1.00;;;;;;6382510;27;20234;-53
2022/10/18 00:07:19;;;;;;;17.13;15.43;;;16.10;1.00;;;;;;6378153;27;20706;-54
2022/10/18 00:10:23;;;;;;;15.93;14.50;;;16.10;1.00;;;;;;6387589;27;20238;-54
2022/10/18 00:13:26;;;;;;;17.63;16.03;;;16.20;1.00;;;;;;6388185;27;20237;-53
2022/10/18 00:16:30;;;;;;;17.23;15.53;;;16.10;1.00;;;;;;6378231;27;20688;-53
2022/10/18 00:19:33;;;;;;;18.90;15.97;;;16.20;1.00;;;;;;6362309;27;20565;-54
2022/10/18 00:22:37;;;;;;;20.93;18.97;;;16.20;1.00;;;;;;6375637;27;20633;-54
2022/10/18 00:25:40;;;;;;;23.23;18.60;;;16.20;1.00;;;;;;6368796;27;20652;-54
2022/10/18 00:28:44;;;;;;;19.40;17.23;;;16.20;1.00;;;;;;6383055;27;20381;-60
2022/10/18 00:31:48;;;;;;;18.13;16.27;;;16.20;1.00;;;;;;6385958;27;20711;-53
2022/10/18 00:34:51;;;;;;;18.70;15.33;;;16.20;1.00;;;;;;6387403;27;20238;-53
2022/10/18 00:37:53;;;;;;;17.33;15.53;;;16.20;1.00;;;;;;6379073;27;20389;-54
2022/10/18 00:40:56;;;;;;;15.53;14.10;;;16.30;1.00;;;;;;6378316;27;20230;-55
2022/10/18 00:44:01;;;;;;;15.37;13.87;;;16.30;1.00;;;;;;6387848;27;20324;-54
2022/10/18 00:47:09;;;;;;;13.70;12.50;;;16.30;1.00;;;;;;6375901;27;20243;-53
2022/10/18 00:50:12;;;;;;;14.07;12.53;;;16.30;1.00;;;;;;6380274;27;20249;-53
2022/10/18 00:53:19;;;;;;;14.30;13.03;;;16.40;1.00;;;;;;6386520;27;20234;-53
2022/10/18 00:56:22;;;;;;;15.77;12.40;;;16.40;1.00;;;;;;6385442;27;20351;-55
2022/10/18 00:59:26;;;;;;;13.67;12.47;;;16.50;1.00;;;;;;6386874;27;20306;-53
2022/10/18 01:02:31;;;;;;;14.53;13.20;;;16.60;1.00;;;;;;6358840;27;20236;-49
2022/10/18 01:05:40;;;;;;;14.63;13.07;;;16.70;1.00;;;;;;6380793;27;20231;-55
2022/10/18 01:08:59;;;;;;;13.30;12.23;;;16.80;1.00;;;;;;6387143;27;20235;-53
2022/10/18 01:12:15;;;;;;;14.07;12.97;;;17.00;1.00;;;;;;6360060;27;20243;-54
2022/10/18 01:15:27;;;;;;;13.60;12.40;;;17.10;1.00;;;;;;6360570;27;20700;-54
2022/10/18 01:18:37;;;;;;;13.17;12.03;;;17.20;1.00;;;;;;6369263;27;20459;-53
2022/10/18 01:21:47;;;;;;;15.37;13.37;;;17.30;1.00;;;;;;6383583;27;20262;-53
2022/10/18 01:25:03;;;;;;;14.47;12.97;;;17.30;1.00;;;;;;6361026;27;20470;-53
2022/10/18 01:28:19;;;;;;;14.00;12.70;;;17.40;1.00;;;;;;6374793;27;20234;-54
2022/10/18 01:31:29;;;;;;;13.77;12.30;;;17.40;1.00;;;;;;6379125;27;20239;-54
2022/10/18 01:34:36;;;;;;;12.80;11.70;;;17.40;1.00;;;;;;6384475;27;20223;-55
2022/10/18 01:37:41;;;;;;;13.00;11.67;;;17.50;1.00;;;;;;6370878;27;20727;-54
2022/10/18 01:40:47;;;;;;;13.70;12.60;;;17.40;1.00;;;;;;6385584;27;20627;-54
2022/10/18 01:43:53;;;;;;;12.90;11.90;;;17.40;1.00;;;;;;6377754;27;20251;-55
2022/10/18 01:46:57;;;;;;;13.77;12.57;;;17.50;1.00;;;;;;6360919;27;20250;-53
2022/10/18 01:50:04;;;;;;;13.97;12.60;;;17.40;1.00;;;;;;6381208;27;20730;-53
2022/10/18 01:53:20;;;;;;;12.77;11.70;;;17.50;1.00;;;;;;6379924;27;20242;-53
2022/10/18 01:56:36;;;;;;;11.60;10.70;;;17.50;1.00;;;;;;6385213;27;20219;-54
2022/10/18 01:59:51;;;;;;;13.27;11.83;;;17.40;1.00;;;;;;6384871;27;20255;-54
2022/10/18 02:03:01;;;;;;;13.13;11.93;;;17.50;1.00;;;;;;6361342;27;20235;-54
2022/10/18 02:06:07;;;;;;;14.07;12.57;;;17.50;1.00;;;;;;6362904;27;20742;-53
2022/10/18 02:09:16;;;;;;;13.40;12.20;;;17.50;1.00;;;;;;6381914;27;20232;-53
2022/10/18 02:12:20;;;;;;;14.10;12.87;;;17.50;1.00;;;;;;6346503;27;20541;-53
2022/10/18 02:15:26;;;;;;;13.30;11.77;;;17.50;1.00;;;;;;6375590;27;20630;-53
2022/10/18 02:18:35;;;;;;;13.40;12.20;;;17.50;1.00;;;;;;6385412;27;20226;-53
2022/10/18 02:21:39;;;;;;;14.07;12.70;;;17.50;1.00;;;;;;6378869;27;20425;-55
2022/10/18 02:24:47;;;;;;;14.27;12.90;;;17.50;1.00;;;;;;6359207;27;20434;-55
2022/10/18 02:27:49;;;;;;;14.17;12.57;;;17.50;1.00;;;;;;6376092;27;20792;-55
2022/10/18 02:30:58;;;;;;;12.87;11.63;;;17.50;1.00;;;;;;6372257;27;20602;-53
2022/10/18 02:34:08;;;;;;;13.10;12.03;;;17.50;1.00;;;;;;6359615;27;20235;-53
2022/10/18 02:37:11;;;;;;;11.67;10.87;;;17.40;1.00;;;;;;6365099;27;20849;-54
2022/10/18 02:40:16;;;;;;;12.87;11.87;;;17.40;1.00;;;;;;6384311;27;20313;-54
2022/10/18 02:43:19;;;;;;;12.60;11.60;;;17.40;1.00;;;;;;6358492;27;20246;-54
2022/10/18 02:46:22;;;;;;;11.80;10.90;;;17.40;1.00;;;;;;6378348;27;20226;-54
2022/10/18 02:49:26;;;;;;;13.07;11.80;;;17.40;1.00;;;;;;6360295;27;20234;-55
2022/10/18 02:52:29;;;;;;;12.97;11.87;;;17.30;1.00;;;;;;6358163;27;20632;-53
2022/10/18 02:55:32;;;;;;;13.10;11.77;;;17.30;1.00;;;;;;6358644;27;20437;-54
2022/10/18 02:58:34;;;;;;;14.23;12.83;;;17.30;1.00;;;;;;6376928;27;20393;-54
2022/10/18 03:01:37;;;;;;;13.47;12.17;;;17.30;1.00;;;;;;6375270;27;20227;-55
2022/10/18 03:04:41;;;;;;;11.60;10.63;;;17.30;1.00;;;;;;6381942;27;20279;-54
2022/10/18 03:07:44;;;;;;;12.27;11.33;;;17.30;1.00;;;;;;6373218;27;20253;-53
2022/10/18 03:10:47;;;;;;;11.77;10.57;;;17.30;1.00;;;;;;6366065;27;20235;-54
2022/10/18 03:13:50;;;;;;;13.57;12.23;;;17.30;1.00;;;;;;6358698;28;20238;-54
2022/10/18 03:16:53;;;;;;;13.93;12.73;;;17.20;1.00;;;;;;6358744;27;20228;-53
2022/10/18 03:19:57;;;;;;;13.43;12.10;;;17.20;1.00;;;;;;6358360;27;20826;-54
2022/10/18 03:22:59;;;;;;;13.10;12.00;;;17.20;1.00;;;;;;6357906;27;20703;-54
2022/10/18 03:26:02;;;;;;;13.77;12.33;;;17.10;1.00;;;;;;6381585;27;20250;-52
2022/10/18 03:29:06;;;;;;;12.53;11.40;;;17.10;1.00;;;;;;6384937;27;20480;-55
2022/10/18 03:32:09;;;;;;;11.13;10.23;;;17.10;1.00;;;;;;6367133;27;20238;-53
2022/10/18 03:35:13;;;;;;;13.17;11.10;;;17.10;1.00;;;;;;6380222;27;20231;-55
2022/10/18 03:38:16;;;;;;;13.73;12.43;;;17.10;1.00;;;;;;6381491;27;20222;-54
2022/10/18 03:41:19;;;;;;;13.83;12.63;;;17.00;1.00;;;;;;6378228;27;20234;-54
2022/10/18 03:44:22;;;;;;;13.67;12.40;;;17.00;1.00;;;;;;6383599;27;20246;-53
2022/10/18 03:47:25;;;;;;;12.83;11.67;;;17.00;1.00;;;;;;6381677;27;20234;-53
2022/10/18 03:50:29;;;;;;;13.03;12.07;;;17.00;1.00;;;;;;6380986;27;20237;-54
2022/10/18 03:53:32;;;;;;;12.30;11.40;;;17.00;1.00;;;;;;6383285;27;20230;-54
2022/10/18 03:56:34;;;;;;;12.43;11.17;;;16.90;1.00;;;;;;6376639;27;20236;-55
2022/10/18 03:59:37;;;;;;;12.30;11.37;;;16.90;1.00;;;;;;6382433;27;20294;-53
2022/10/18 04:02:40;;;;;;;13.73;12.43;;;16.90;1.00;;;;;;6374865;27;20231;-52
2022/10/18 04:05:45;;;;;;;12.30;11.20;;;16.90;1.00;;;;;;6372799;27;20806;-54
2022/10/18 04:08:48;;;;;;;12.03;11.07;;;16.90;1.00;;;;;;6380699;27;20760;-53
2022/10/18 04:11:50;;;;;;;11.93;10.93;;;16.80;1.00;;;;;;6373917;27;20250;-54
2022/10/18 04:14:53;;;;;;;11.30;10.50;;;16.80;1.00;;;;;;6380472;27;20234;-53
2022/10/18 04:17:57;;;;;;;11.57;10.63;;;16.80;1.00;;;;;;6370191;27;20243;-52
2022/10/18 04:21:01;;;;;;;13.10;11.87;;;16.80;1.00;;;;;;6377690;27;20266;-53
2022/10/18 04:24:05;;;;;;;12.17;11.13;;;16.80;1.00;;;;;;6385541;27;20598;-54
2022/10/18 04:27:08;;;;;;;11.00;10.23;;;16.70;1.00;;;;;;6383824;27;20687;-54
2022/10/18 04:30:11;;;;;;;11.00;10.10;;;16.70;1.00;;;;;;6377347;27;20235;-54
2022/10/18 04:33:14;;;;;;;10.63;9.77;;;16.70;1.00;;;;;;6379456;27;20239;-53
2022/10/18 04:36:18;;;;;;;9.43;8.73;;;16.60;1.00;;;;;;6386089;27;20597;-54
2022/10/18 04:39:21;;;;;;;9.80;8.90;;;16.60;1.00;;;;;;6386135;27;20741;-54
2022/10/18 04:42:24;;;;;;;10.67;9.87;;;16.60;1.00;;;;;;6386051;27;20620;-54
2022/10/18 04:45:27;;;;;;;10.10;9.40;;;16.50;1.00;;;;;;6387428;27;20707;-53
2022/10/18 04:48:30;;;;;;;10.07;9.17;;;16.50;1.00;;;;;;6385499;27;20265;-54
2022/10/18 04:51:34;;;;;;;10.43;9.63;;;16.50;1.00;;;;;;6384062;27;20243;-54
2022/10/18 04:54:36;;;;;;;10.13;9.23;;;16.50;1.00;;;;;;6386657;27;20396;-54
2022/10/18 04:57:39;;;;;;;8.27;7.77;;;16.50;1.00;;;;;;6378801;27;20261;-52
2022/10/18 05:00:42;;;;;;;9.13;8.57;;;16.40;1.00;;;;;;6385781;27;20612;-55
2022/10/18 05:03:45;;;;;;;10.03;9.00;;;16.40;1.00;;;;;;6386447;27;20242;-53
2022/10/18 05:06:49;;;;;;;9.17;8.63;;;16.40;1.00;;;;;;6378538;27;20231;-53
2022/10/18 05:09:52;;;;;;;8.93;8.37;;;16.30;1.00;;;;;;6384704;27;20234;-52
2022/10/18 05:12:55;;;;;;;8.60;8.20;;;16.30;1.00;;;;;;6382622;27;20243;-54
2022/10/18 05:15:59;;;;;;;8.67;8.07;;;16.30;1.00;;;;;;6378610;27;20227;-54
2022/10/18 05:19:04;;;;;;;10.77;9.93;;;16.30;1.00;;;;;;6372529;27;20223;-55
2022/10/18 05:22:08;;;;;;;10.90;10.20;;;16.30;1.00;;;;;;6384587;27;20608;-53
2022/10/18 05:25:11;;;;;;;11.90;10.73;;;16.30;1.00;;;;;;6385572;27;20563;-53
2022/10/18 05:28:14;;;;;;;12.13;11.10;;;16.20;1.00;;;;;;6376779;27;20242;-54
2022/10/18 05:31:37;;;;;;;11.07;10.20;;;16.20;1.00;;;;;;6384916;27;20239;-53
2022/10/18 05:34:40;;;;;;;11.00;10.20;;;16.20;1.00;;;;;;6375826;27;20696;-52
2022/10/18 05:37:44;;;;;;;10.87;9.83;;;16.20;1.00;;;;;;6371549;27;20230;-52
2022/10/18 05:40:47;;;;;;;9.83;9.23;;;16.20;1.00;;;;;;6376290;27;20574;-53
2022/10/18 05:43:49;;;;;;;8.70;8.03;;;16.20;1.00;;;;;;6378580;27;20264;-54
2022/10/18 05:46:52;;;;;;;10.50;9.50;;;16.20;1.00;;;;;;6382264;27;20242;-53
2022/10/18 05:49:55;;;;;;;9.13;8.53;;;16.20;1.00;;;;;;6385053;27;20238;-53
2022/10/18 05:52:59;;;;;;;10.93;10.13;;;16.20;1.00;;;;;;6384151;27;20234;-53
2022/10/18 05:56:14;;;;;;;10.27;9.33;;;16.10;1.00;;;;;;6380178;27;20927;-53
2022/10/18 05:59:17;;;;;;;9.97;9.23;;;16.10;1.00;;;;;;6381061;27;20223;-54
2022/10/18 06:02:20;;;;;;;9.60;8.90;;;16.10;1.00;;;;;;6384396;27;20227;-52
2022/10/18 06:05:23;;;;;;;10.47;9.67;;;16.10;1.00;;;;;;6384702;27;20230;-54
2022/10/18 06:08:27;;;;;;;10.03;9.33;;;16.10;1.00;;;;;;6380567;27;20604;-52
2022/10/18 06:11:31;;;;;;;13.40;10.37;;;16.10;1.00;;;;;;6384478;27;20255;-52
2022/10/18 06:14:34;;;;;;;12.03;11.07;;;16.00;1.00;;;;;;6383701;27;20239;-52
2022/10/18 06:17:36;;;;;;;11.83;10.70;;;16.00;1.00;;;;;;6382664;27;20226;-53
2022/10/18 06:20:40;;;;;;;10.10;9.40;;;16.00;1.00;;;;;;6384133;27;20815;-53
2022/10/18 06:23:47;;;;;;;11.97;10.97;;;16.00;1.00;;;;;;6382006;27;20239;-53
2022/10/18 06:26:50;;;;;;;12.47;11.37;;;16.00;1.00;;;;;;6383472;27;20272;-55
2022/10/18 06:29:53;;;;;;;10.97;9.87;;;16.00;1.00;;;;;;6380408;27;20234;-53
2022/10/18 06:32:59;;;;;;;11.30;10.40;;;16.00;1.00;;;;;;6374706;27;20398;-55
2022/10/18 06:36:04;;;;;;;11.50;10.50;;;16.00;1.00;;;;;;6383597;27;20235;-53
2022/10/18 06:39:08;;;;;;;12.13;11.00;;;16.00;1.00;;;;;;6376523;27;20310;-53
2022/10/18 06:42:11;;;;;;;12.90;11.90;;;16.00;1.00;;;;;;6379580;27;20743;-53
2022/10/18 06:45:14;;;;;;;12.80;11.80;;;16.00;1.00;;;;;;6375807;27;20231;-54
2022/10/18 06:48:18;;;;;;;12.00;11.00;;;16.00;1.00;;;;;;6383359;27;20245;-53
2022/10/18 06:51:26;;;;;;;12.87;11.83;;;16.00;1.00;;;;;;6383039;27;20242;-53
2022/10/18 06:54:30;;;;;;;13.10;11.90;;;16.00;1.00;;;;;;6377508;27;20239;-52
2022/10/18 06:57:33;;;;;;;11.40;10.47;;;16.10;1.00;;;;;;6379243;27;20230;-55
2022/10/18 07:00:36;;;;;;;11.73;10.63;;;16.10;1.00;;;;;;6383025;27;20749;-54
2022/10/18 07:03:39;;;;;;;13.17;11.93;;;16.10;1.00;;;;;;6380029;27;20602;-54
2022/10/18 07:06:42;;;;;;;13.03;11.83;;;16.20;1.00;;;;;;6382153;27;20238;-53
2022/10/18 07:09:46;;;;;;;11.77;10.53;;;16.10;1.00;;;;;;6383240;27;20230;-53
2022/10/18 07:12:49;;;;;;;11.77;10.77;;;16.10;1.00;;;;;;6381435;27;20492;-53
2022/10/18 07:16:05;;;;;;;11.10;10.10;;;16.10;1.00;;;;;;6376096;27;20317;-54
2022/10/18 07:19:08;;;;;;;10.83;9.93;;;16.10;1.00;;;;;;6381792;27;20243;-53
2022/10/18 07:22:11;;;;;;;11.13;10.13;;;16.10;1.00;;;;;;6377475;27;20719;-53
2022/10/18 07:25:15;;;;;;;11.63;10.50;;;16.10;1.00;;;;;;6380100;27;20227;-54
2022/10/18 07:28:18;;;;;;;13.03;10.70;;;16.10;1.00;;;;;;6382529;27;20378;-53
2022/10/18 07:31:22;;;;;;;14.20;13.00;;;16.10;1.00;;;;;;6383010;27;20740;-54
2022/10/18 07:34:24;;;;;;;14.27;12.97;;;16.20;1.00;;;;;;6377940;27;20294;-52
2022/10/18 07:37:27;;;;;;;15.87;14.20;;;16.20;1.00;;;;;;6379174;27;20606;-53
2022/10/18 07:40:33;;;;;;;16.00;14.40;;;16.20;1.00;;;;;;6382176;27;20820;-53
2022/10/18 07:43:36;;;;;;;15.27;13.90;;;16.30;1.00;;;;;;6380496;27;20376;-53
2022/10/18 07:46:39;;;;;;;16.77;14.33;;;16.30;1.00;;;;;;6382146;27;20252;-53
2022/10/18 07:49:42;;;;;;;14.10;12.70;;;16.30;1.00;;;;;;6382404;27;20231;-54
2022/10/18 07:52:45;;;;;;;12.93;11.53;;;16.30;1.00;;;;;;6375898;27;20237;-53
2022/10/18 07:55:49;;;;;;;13.97;12.57;;;16.30;1.00;;;;;;6385168;27;20387;-53
2022/10/18 07:58:53;;;;;;;12.33;11.33;;;16.40;1.00;;;;;;6386562;27;20233;-53
2022/10/18 08:01:56;;;;;;;12.47;11.27;;;16.40;1.00;;;;;;6381848;27;20239;-53
2022/10/18 08:04:59;;;;;;;14.10;12.63;;;16.40;1.00;;;;;;6388013;27;20237;-54
2022/10/18 08:08:02;;;;;;;14.37;12.97;;;16.40;1.00;;;;;;6383679;27;20473;-53
2022/10/18 08:11:13;;;;;;;12.77;11.57;;;16.40;1.00;;;;;;6387245;27;20227;-52
2022/10/18 08:14:16;;;;;;;12.20;11.20;;;16.40;1.00;;;;;;6386537;27;20223;-52
2022/10/18 08:17:19;;;;;;;13.00;11.67;;;16.40;1.00;;;;;;6383969;27;20242;-53
2022/10/18 08:20:22;;;;;;;12.47;11.47;;;16.40;1.00;;;;;;6387658;27;20717;-54
2022/10/18 08:23:33;;;;;;;12.40;11.27;;;16.30;1.00;;;;;;6386909;27;20476;-52
2022/10/18 08:26:38;;;;;;;12.70;11.43;;;16.30;1.00;;;;;;6380177;27;20230;-53
2022/10/18 08:29:40;;;;;;;13.83;10.80;;;16.30;1.00;;;;;;6386872;27;20295;-52
2022/10/18 08:32:43;;;;;;;12.83;11.73;;;16.30;1.00;;;;;;6386687;27;20233;-53
2022/10/18 08:35:54;;;;;;;14.67;10.63;;;16.30;1.00;;;;;;6385051;27;20230;-53
2022/10/18 08:38:57;;;;;;;10.90;9.90;;;16.30;1.00;;;;;;6377274;27;20231;-53
2022/10/18 08:42:15;;;;;;;10.07;9.17;;;16.30;1.00;;;;;;6378463;27;20256;-55
2022/10/18 08:45:18;;;;;;;10.87;9.93;;;16.20;1.00;;;;;;6386710;27;20234;-52
2022/10/18 08:48:45;;;;;;;10.17;9.27;;;16.10;1.00;;;;;;6382144;27;20247;-54
2022/10/18 08:51:50;;;;;;;9.87;8.97;;;16.10;1.00;;;;;;6379024;27;20639;-54
2022/10/18 08:55:00;;;;;;;9.87;9.07;;;16.10;1.00;;;;;;6382343;27;20238;-54
2022/10/18 08:58:15;;;;;;;8.90;8.07;;;16.00;1.00;;;;;;6385800;27;20233;-53
2022/10/18 09:01:30;;;;;;;9.93;9.13;;;16.00;1.00;;;;;;6386214;27;20233;-53
2022/10/18 09:04:46;;;;;;;8.73;8.13;;;16.00;1.00;;;;;;6381519;27;20227;-53
2022/10/18 09:08:08;;;;;;;9.40;8.53;;;16.10;1.00;;;;;;6384334;27;20629;-52
2022/10/18 09:11:26;;;;;;;8.63;7.90;;;16.00;1.00;;;;;;6385898;27;20384;-54
2022/10/18 09:15:02;;;;;;;9.77;8.87;;;16.00;1.00;;;;;;6384753;27;20233;-54
2022/10/18 09:18:19;;;;;;;10.17;9.27;;;16.10;1.00;;;;;;6377098;27;20662;-52
2022/10/18 09:21:28;;;;;;;10.37;9.37;;;16.00;1.00;;;;;;6377009;27;20223;-53
2022/10/18 09:24:38;;;;;;;10.60;9.50;;;16.00;1.00;;;;;;6382354;27;20625;-52
2022/10/18 09:27:48;;;;;;;11.00;9.90;;;16.00;1.00;;;;;;6386190;27;20227;-54
2022/10/18 09:30:59;;;;;;;17.03;15.43;;;16.00;1.00;;;;;;6388009;27;20254;-53
2022/10/18 09:34:10;;;;;;;11.07;10.13;;;16.00;1.00;;;;;;6382420;27;20314;-56
2022/10/18 09:37:16;;;;;;;10.60;9.27;;;15.90;1.00;;;;;;6387134;27;20222;-53
2022/10/18 09:40:24;;;;;;;10.00;9.10;;;15.80;1.00;;;;;;6384089;27;20602;-53
2022/10/18 09:43:38;;;;;;;9.10;8.50;;;15.80;1.00;;;;;;6383307;27;20242;-53
2022/10/18 09:46:46;;;;;;;10.13;9.03;;;15.80;1.00;;;;;;6386883;27;20223;-55
2022/10/18 09:49:54;;;;;;;9.73;8.93;;;15.80;1.00;;;;;;6386883;27;20699;-52
2022/10/18 09:53:06;;;;;;;9.27;8.47;;;15.80;1.00;;;;;;6385802;27;20492;-52
2022/10/18 09:56:12;;;;;;;9.03;8.33;;;15.80;1.00;;;;;;6382324;27;20611;-52
2022/10/18 09:59:35;;;;;;;8.70;7.90;;;15.80;1.00;;;;;;6383039;27;20234;-53
2022/10/18 10:02:37;;;;;;;7.90;7.30;;;15.80;1.00;;;;;;6384844;27;20234;-53
2022/10/18 10:05:42;;;;;;;8.10;7.40;;;15.90;1.00;;;;;;6385075;27;20836;-54
2022/10/18 10:08:53;;;;;;;9.03;8.33;;;15.90;1.00;;;;;;6381205;27;20238;-53
2022/10/18 10:11:57;;;;;;;8.50;7.60;;;15.90;1.00;;;;;;6379944;27;20238;-53
2022/10/18 10:15:16;;;;;;;8.40;7.80;;;15.90;1.00;;;;;;6379101;27;20235;-53
2022/10/18 10:18:21;;;;;;;8.87;8.27;;;15.80;1.00;;;;;;6377630;27;20275;-54
2022/10/18 10:21:25;;;;;;;8.87;8.27;;;15.90;1.00;;;;;;6384162;27;20286;-53
2022/10/18 10:24:43;;;;;;;8.70;7.90;;;15.90;1.00;;;;;;6383311;27;20337;-53
2022/10/18 10:27:46;;;;;;;9.83;9.03;;;15.90;1.00;;;;;;6383072;27;20231;-55
2022/10/18 10:30:50;;;;;;;9.80;8.90;;;15.80;1.00;;;;;;6384602;27;20238;-54
2022/10/18 10:34:00;;;;;;;8.60;8.00;;;15.80;1.00;;;;;;6382319;27;20246;-53
2022/10/18 10:37:24;;;;;;;9.87;9.07;;;15.80;1.00;;;;;;6376096;27;20479;-52
2022/10/18 10:40:29;;;;;;;10.50;9.60;;;15.90;1.00;;;;;;6380550;27;20219;-53
2022/10/18 10:43:33;;;;;;;10.77;9.90;;;15.90;1.00;;;;;;6384048;27;20238;-53
2022/10/18 10:46:41;;;;;;;11.50;10.40;;;15.90;1.00;;;;;;6382190;27;20857;-54
2022/10/18 10:49:47;;;;;;;12.67;11.57;;;15.90;1.00;;;;;;6382855;27;20692;-53
2022/10/18 10:52:52;;;;;;;11.93;10.73;;;15.90;1.00;;;;;;6383270;27;20234;-54
2022/10/18 10:55:56;;;;;;;11.83;10.83;;;16.00;1.00;;;;;;6349505;27;20246;-53
2022/10/18 10:59:07;;;;;;;10.50;9.60;;;16.00;1.00;;;;;;6382938;27;20230;-53
2022/10/18 11:02:21;;;;;;;11.23;10.33;;;16.00;1.00;;;;;;6383096;27;20242;-52
2022/10/18 11:05:28;;;;;;;10.63;9.83;;;16.10;1.00;;;;;;6383279;27;20492;-55
2022/10/18 11:08:37;;;;;;;12.50;11.50;;;16.10;1.00;;;;;;6380660;27;20233;-53
2022/10/18 11:11:48;;;;;;;14.03;12.50;;;16.10;1.00;;;;;;6378082;27;20934;-53
2022/10/18 11:15:02;;;;;;;12.03;10.83;;;16.10;1.00;;;;;;6382491;27;20226;-54
2022/10/18 11:18:16;;;;;;;12.47;11.33;;;16.00;1.00;;;;;;6371394;27;20288;-54
2022/10/18 11:21:23;;;;;;;13.27;11.63;;;16.00;1.00;;;;;;6377641;27;20226;-52
2022/10/18 11:24:27;;;;;;;11.90;11.00;;;16.00;1.00;;;;;;6379897;27;20223;-52
2022/10/18 11:27:36;;;;;;;13.13;11.93;;;16.00;1.00;;;;;;6376480;27;20718;-52
2022/10/18 11:30:48;;;;;;;12.43;11.43;;;16.00;1.00;;;;;;6384420;27;20235;-53
2022/10/18 11:34:02;;;;;;;13.87;12.67;;;16.00;1.00;;;;;;6355880;27;20253;-52
2022/10/18 11:37:27;;;;;;;12.90;11.80;;;16.00;1.00;;;;;;6378822;27;20723;-52
2022/10/18 11:40:49;;;;;;;13.23;12.03;;;16.10;1.00;;;;;;6387137;27;20829;-54
2022/10/18 11:43:55;;;;;;;11.43;10.43;;;16.10;1.00;;;;;;6388259;27;20246;-53
2022/10/18 11:47:15;;;;;;;11.20;10.23;;;16.10;1.00;;;;;;6378981;27;20230;-53
2022/10/18 11:50:26;;;;;;;12.43;11.43;;;16.00;1.00;;;;;;6387088;27;20239;-55
2022/10/18 11:53:38;;;;;;;12.10;11.00;;;16.10;1.00;;;;;;6387477;27;20235;-53
2022/10/18 11:56:47;;;;;;;12.27;11.27;;;16.10;1.00;;;;;;6381806;27;20226;-58
2022/10/18 12:00:02;;;;;;;12.33;11.33;;;16.10;1.00;;;;;;6380977;27;20234;-53
2022/10/18 12:03:22;;;;;;;12.17;11.03;;;16.10;1.00;;;;;;6380365;27;20234;-53
2022/10/18 12:06:30;;;;;;;12.47;11.23;;;16.10;1.00;;;;;;6387014;27;20215;-54
2022/10/18 12:09:37;;;;;;;10.57;9.57;;;16.10;1.00;;;;;;6384231;27;20227;-53
2022/10/18 12:12:49;;;;;;;11.17;10.17;;;16.20;1.00;;;;;;6384446;27;20305;-52
2022/10/18 12:15:53;;;;;;;11.77;10.50;;;16.20;1.00;;;;;;6388193;27;20341;-52
2022/10/18 12:18:59;;;;;;;12.13;11.17;;;16.20;1.00;;;;;;6386934;27;20388;-54
2022/10/18 12:22:12;;;;;;;11.40;10.13;;;16.20;1.00;;;;;;6383466;27;20239;-54
2022/10/18 12:25:17;;;;;;;9.90;9.20;;;16.10;1.00;;;;;;6387617;27;20507;-52
2022/10/18 12:28:38;;;;;;;10.67;9.80;;;16.10;1.00;;;;;;6387869;27;20231;-51
2022/10/18 12:31:45;;;;;;;10.87;10.07;;;16.10;1.00;;;;;;6384050;27;20231;-54
2022/10/18 12:34:51;;;;;;;9.73;8.83;;;16.10;1.00;;;;;;6383373;27;20613;-53
2022/10/18 12:38:17;;;;;;;10.00;9.30;;;16.10;1.00;;;;;;6378834;27;20270;-53
2022/10/18 12:41:24;;;;;;;10.30;9.53;;;16.10;1.00;;;;;;6385044;27;20735;-53
2022/10/18 12:44:32;;;;;;;10.47;9.53;;;16.10;1.00;;;;;;6386850;27;20226;-54
2022/10/18 12:47:35;;;;;;;9.63;9.03;;;16.10;1.00;;;;;;6383506;27;20231;-57
2022/10/18 12:50:40;;;;;;;10.77;9.87;;;16.10;1.00;;;;;;6386202;27;20280;-54
2022/10/18 12:53:44;;;;;;;11.30;10.40;;;16.10;1.00;;;;;;6381588;27;20245;-54
2022/10/18 12:56:47;;;;;;;9.83;8.93;;;16.20;1.00;;;;;;6384348;27;20242;-54
2022/10/18 12:59:52;;;;;;;9.70;9.00;;;16.20;1.00;;;;;;6385053;27;20612;-52
2022/10/18 13:03:30;;;;;;;10.30;9.50;;;16.30;1.00;;;;;;6387024;27;20239;-53
2022/10/18 13:07:10;;;;;;;10.77;9.87;;;16.40;1.00;;;;;;6384617;27;20219;-52
2022/10/18 13:10:40;;;;;;;10.87;10.17;;;16.50;1.00;;;;;;6381437;27;20239;-53
2022/10/18 13:13:52;;;;;;;11.13;10.13;;;16.50;1.00;;;;;;6384012;27;20234;-53
2022/10/18 13:17:05;;;;;;;11.07;10.17;;;16.60;1.00;;;;;;6383529;27;20460;-53
2022/10/18 13:20:21;;;;;;;10.73;10.07;;;16.60;1.00;;;;;;6378761;27;20449;-53
2022/10/18 13:23:41;;;;;;;10.60;9.80;;;16.60;1.00;;;;;;6381515;27;20234;-54
2022/10/18 13:26:56;;;;;;;10.30;9.60;;;16.60;1.00;;;;;;6383679;27;20251;-52
2022/10/18 13:30:32;;;;;;;10.10;9.40;;;16.60;1.00;;;;;;6381917;27;20215;-53
2022/10/18 13:33:38;;;;;;;11.13;10.33;;;16.60;1.00;;;;;;6385387;27;20230;-55
2022/10/18 13:36:42;;;;;;;11.63;10.67;;;16.70;1.00;;;;;;6373422;27;20241;-55
2022/10/18 13:39:45;;;;;;;11.03;9.93;;;16.70;1.00;;;;;;6385237;27;20235;-54
2022/10/18 13:42:48;;;;;;;11.17;10.27;;;16.80;1.00;;;;;;6385283;27;20390;-53
2022/10/18 13:45:55;;;;;;;12.37;11.23;;;16.80;1.00;;;;;;6384934;27;20392;-54
2022/10/18 13:49:23;;;;;;;11.10;10.20;;;16.80;1.00;;;;;;6381370;27;20607;-54
2022/10/18 13:52:34;;;;;;;10.63;9.83;;;16.90;1.00;;;;;;6382091;27;20234;-53
2022/10/18 13:55:54;;;;;;;10.50;9.30;;;17.00;1.00;;;;;;6385546;27;20223;-53
2022/10/18 13:59:14;;;;;;;10.30;9.60;;;17.10;1.00;;;;;;6377019;27;20287;-53
2022/10/18 14:02:39;;;;;;;9.80;9.03;;;17.10;1.00;;;;;;6378229;27;20246;-53
2022/10/18 14:06:05;;;;;;;9.87;9.13;;;17.10;1.00;;;;;;6380635;27;20230;-53
2022/10/18 14:09:16;;;;;;;10.90;10.07;;;17.00;1.00;;;;;;6377181;27;20229;-53
2022/10/18 14:12:43;;;;;;;10.73;10.03;;;17.00;1.00;;;;;;6380891;27;20234;-52
2022/10/18 14:15:49;;;;;;;10.80;10.00;;;17.00;1.00;;;;;;6382430;27;20469;-52
2022/10/18 14:19:00;;;;;;;11.27;9.97;;;16.90;1.00;;;;;;6383351;27;20250;-53
2022/10/18 14:22:12;;;;;;;10.37;9.57;;;17.10;1.00;;;;;;6384576;27;20235;-54
2022/10/18 14:25:21;;;;;;;10.40;9.50;;;17.20;1.00;;;;;;6377669;27;20716;-52
2022/10/18 14:28:24;;;;;;;9.23;8.57;;;17.30;1.00;;;;;;6384009;27;20226;-54
2022/10/18 14:31:51;;;;;;;9.87;9.17;;;17.30;1.00;;;;;;6382612;27;20247;-54
2022/10/18 14:34:55;;;;;;;8.93;8.13;;;17.20;1.00;;;;;;6384201;27;20227;-53
2022/10/18 14:38:21;;;;;;;10.10;9.27;;;17.10;1.00;;;;;;6382693;27;20738;-53
2022/10/18 14:41:27;;;;;;;9.97;8.93;;;17.00;1.00;;;;;;6382361;27;20617;-54
2022/10/18 14:44:33;;;;;;;11.30;10.10;;;16.90;1.00;;;;;;6382865;27;20234;-55
2022/10/18 14:47:36;;;;;;;11.23;10.23;;;16.80;1.00;;;;;;6381454;27;20639;-55
2022/10/18 14:50:39;;;;;;;11.20;9.97;;;16.60;1.00;;;;;;6380262;27;20238;-59
2022/10/18 14:53:43;;;;;;;10.50;9.63;;;16.50;1.00;;;;;;6379433;27;20238;-55
2022/10/18 14:56:47;;;;;;;10.03;9.33;;;16.40;1.00;;;;;;6382789;27;20238;-54
2022/10/18 14:59:54;;;;;;;11.87;10.77;;;16.30;1.00;;;;;;6383408;27;20240;-55
2022/10/18 15:02:57;;;;;;;13.33;11.60;;;16.30;1.00;;;;;;6383056;27;20242;-56
2022/10/18 15:06:03;;;;;;;11.73;10.50;;;16.20;1.00;;;;;;6380093;27;20343;-54
2022/10/18 15:09:07;;;;;;;11.87;10.53;;;16.20;1.00;;;;;;6382972;27;20234;-52
2022/10/18 15:12:14;;;;;;;14.30;11.47;;;16.10;1.00;;;;;;6383094;27;20711;-54
2022/10/18 15:15:19;;;;;;;11.70;10.63;;;16.10;1.00;;;;;;6383404;27;20231;-55
2022/10/18 15:18:25;;;;;;;14.37;11.30;;;16.10;1.00;;;;;;6379452;27;20442;-54
2022/10/18 15:21:28;;;;;;;12.70;11.33;;;16.10;1.00;;;;;;6351866;27;20226;-53
2022/10/18 15:24:35;;;;;;;13.43;12.10;;;16.00;1.00;;;;;;6383813;27;20234;-53
2022/10/18 15:27:39;;;;;;;12.77;11.73;;;15.90;1.00;;;;;;6384924;27;20631;-54
2022/10/18 15:30:47;;;;;;;11.90;10.83;;;15.90;1.00;;;;;;6386047;27;20238;-53
2022/10/18 15:33:50;;;;;;;13.77;11.63;;;15.80;1.00;;;;;;6386636;27;20239;-52
2022/10/18 15:36:55;;;;;;;14.37;13.07;;;15.80;1.00;;;;;;6385617;27;20239;-56
2022/10/18 15:40:38;;;;;;;13.33;12.13;;;15.70;1.00;;;;;;6378392;27;20732;-52
2022/10/18 15:43:40;;;;;;;15.23;13.80;;;15.70;1.00;;;;;;6380825;27;20774;-52
2022/10/18 15:46:43;;;;;;;14.37;13.00;;;15.60;1.00;;;;;;6387026;27;20871;-54
2022/10/18 15:49:57;;;;;;;15.70;14.10;;;15.60;1.00;;;;;;6385896;27;20263;-54
2022/10/18 15:53:25;;;;;;;17.53;14.23;;;15.50;1.00;;;;;;6385214;27;20731;-52
2022/10/18 15:56:31;;;;;;;16.50;14.83;;;15.50;1.00;;;;;;6385870;27;20223;-52
2022/10/18 15:59:34;;;;;;;18.47;14.80;;;15.40;1.00;;;;;;6385295;27;20253;-54
2022/10/18 16:02:37;;;;;;;14.03;12.73;;;15.30;1.00;;;;;;6382018;27;20593;-53
2022/10/18 16:05:40;;;;;;;16.23;13.60;;;15.20;1.00;;;;;;6386337;27;20223;-53
2022/10/18 16:08:47;;;;;;;13.97;12.57;;;15.20;1.00;;;;;;6384023;27;20231;-53